sensor_id;sensor_type;location;lat;lon;timestamp;P1;durP1;ratioP1;P2;durP2;ratioP2
23406;SDS011;11876;53.438;18.942;2023-09-19T00:01:31;13.68;;;11.70;;
23406;SDS011;11876;53.438;18.942;2023-09-19T00:06:34;14.02;;;12.45;;
23406;SDS011;11876;53.438;18.942;2023-09-19T00:11:37;14.88;;;12.63;;
23406;SDS011;11876;53.438;18.942;2023-09-19T00:16:43;12.77;;;11.45;;
23406;SDS011;11876;53.438;18.942;2023-09-19T00:21:49;13.85;;;12.43;;
23406;SDS011;11876;53.438;18.942;2023-09-19T00:26:54;16.80;;;12.65;;
23406;SDS011;11876;53.438;18.942;2023-09-19T00:32:02;13.80;;;12.38;;
23406;SDS011;11876;53.438;18.942;2023-09-19T00:37:07;15.40;;;12.52;;
23406;SDS011;11876;53.438;18.942;2023-09-19T00:42:19;14.95;;;12.63;;
23406;SDS011;11876;53.438;18.942;2023-09-19T00:47:23;14.52;;;13.13;;
23406;SDS011;11876;53.438;18.942;2023-09-19T00:52:31;15.32;;;13.10;;
23406;SDS011;11876;53.438;18.942;2023-09-19T00:57:38;15.55;;;12.80;;
23406;SDS011;11876;53.438;18.942;2023-09-19T01:02:44;15.15;;;13.65;;
23406;SDS011;11876;53.438;18.942;2023-09-19T01:07:53;16.20;;;14.50;;
23406;SDS011;11876;53.438;18.942;2023-09-19T01:18:34;15.80;;;14.15;;
23406;SDS011;11876;53.438;18.942;2023-09-19T01:39:58;16.40;;;13.73;;
23406;SDS011;11876;53.438;18.942;2023-09-19T01:55:46;16.13;;;14.10;;
23406;SDS011;11876;53.438;18.942;2023-09-19T02:00:51;17.85;;;15.68;;
23406;SDS011;11876;53.438;18.942;2023-09-19T02:05:57;17.17;;;15.57;;
23406;SDS011;11876;53.438;18.942;2023-09-19T02:11:04;17.52;;;15.57;;
23406;SDS011;11876;53.438;18.942;2023-09-19T02:16:07;17.45;;;15.65;;
23406;SDS011;11876;53.438;18.942;2023-09-19T02:21:15;19.45;;;15.85;;
23406;SDS011;11876;53.438;18.942;2023-09-19T02:26:25;19.63;;;17.15;;
23406;SDS011;11876;53.438;18.942;2023-09-19T02:31:29;18.60;;;16.80;;
23406;SDS011;11876;53.438;18.942;2023-09-19T02:36:32;17.63;;;15.75;;
23406;SDS011;11876;53.438;18.942;2023-09-19T02:41:35;17.10;;;15.48;;
23406;SDS011;11876;53.438;18.942;2023-09-19T02:46:38;18.95;;;16.85;;
23406;SDS011;11876;53.438;18.942;2023-09-19T02:51:41;17.90;;;16.00;;
23406;SDS011;11876;53.438;18.942;2023-09-19T02:56:44;19.23;;;17.00;;
23406;SDS011;11876;53.438;18.942;2023-09-19T03:01:47;18.65;;;16.23;;
23406;SDS011;11876;53.438;18.942;2023-09-19T03:06:50;18.40;;;16.40;;
23406;SDS011;11876;53.438;18.942;2023-09-19T03:11:53;20.00;;;16.63;;
23406;SDS011;11876;53.438;18.942;2023-09-19T03:16:56;18.40;;;16.50;;
23406;SDS011;11876;53.438;18.942;2023-09-19T03:22:02;20.02;;;17.95;;
23406;SDS011;11876;53.438;18.942;2023-09-19T03:27:05;22.83;;;18.50;;
23406;SDS011;11876;53.438;18.942;2023-09-19T03:32:13;26.25;;;19.17;;
23406;SDS011;11876;53.438;18.942;2023-09-19T03:37:16;22.48;;;19.13;;
23406;SDS011;11876;53.438;18.942;2023-09-19T03:42:19;24.77;;;18.90;;
23406;SDS011;11876;53.438;18.942;2023-09-19T03:47:28;27.08;;;21.55;;
23406;SDS011;11876;53.438;18.942;2023-09-19T03:52:34;24.15;;;20.42;;
23406;SDS011;11876;53.438;18.942;2023-09-19T03:57:37;25.77;;;21.20;;
23406;SDS011;11876;53.438;18.942;2023-09-19T04:02:41;24.45;;;21.60;;
23406;SDS011;11876;53.438;18.942;2023-09-19T04:07:44;22.65;;;19.60;;
23406;SDS011;11876;53.438;18.942;2023-09-19T04:12:54;25.58;;;21.13;;
23406;SDS011;11876;53.438;18.942;2023-09-19T04:17:59;24.52;;;21.60;;
23406;SDS011;11876;53.438;18.942;2023-09-19T04:23:04;25.40;;;21.73;;
23406;SDS011;11876;53.438;18.942;2023-09-19T04:28:09;34.55;;;23.13;;
23406;SDS011;11876;53.438;18.942;2023-09-19T04:33:13;19.02;;;16.95;;
23406;SDS011;11876;53.438;18.942;2023-09-19T04:38:19;22.13;;;19.80;;
23406;SDS011;11876;53.438;18.942;2023-09-19T04:43:22;20.17;;;14.85;;
23406;SDS011;11876;53.438;18.942;2023-09-19T04:48:28;22.58;;;15.70;;
23406;SDS011;11876;53.438;18.942;2023-09-19T04:53:32;18.27;;;15.15;;
23406;SDS011;11876;53.438;18.942;2023-09-19T04:58:37;15.55;;;13.15;;
23406;SDS011;11876;53.438;18.942;2023-09-19T05:03:40;14.13;;;12.07;;
23406;SDS011;11876;53.438;18.942;2023-09-19T05:08:42;14.50;;;11.80;;
23406;SDS011;11876;53.438;18.942;2023-09-19T05:13:45;14.57;;;10.77;;
23406;SDS011;11876;53.438;18.942;2023-09-19T05:18:53;10.20;;;8.32;;
23406;SDS011;11876;53.438;18.942;2023-09-19T05:24:00;13.25;;;9.60;;
23406;SDS011;11876;53.438;18.942;2023-09-19T05:29:04;11.27;;;7.97;;
23406;SDS011;11876;53.438;18.942;2023-09-19T05:34:09;11.50;;;7.25;;
23406;SDS011;11876;53.438;18.942;2023-09-19T05:39:13;9.90;;;5.35;;
23406;SDS011;11876;53.438;18.942;2023-09-19T05:44:17;8.27;;;5.40;;
23406;SDS011;11876;53.438;18.942;2023-09-19T05:49:20;7.53;;;5.28;;
23406;SDS011;11876;53.438;18.942;2023-09-19T05:54:23;7.85;;;5.53;;
23406;SDS011;11876;53.438;18.942;2023-09-19T05:59:26;7.65;;;5.22;;
23406;SDS011;11876;53.438;18.942;2023-09-19T06:04:31;7.32;;;5.60;;
23406;SDS011;11876;53.438;18.942;2023-09-19T06:09:33;7.38;;;5.32;;
23406;SDS011;11876;53.438;18.942;2023-09-19T06:14:36;8.18;;;5.60;;
23406;SDS011;11876;53.438;18.942;2023-09-19T06:19:39;10.18;;;6.03;;
23406;SDS011;11876;53.438;18.942;2023-09-19T06:24:41;12.07;;;6.70;;
23406;SDS011;11876;53.438;18.942;2023-09-19T06:29:44;10.20;;;7.10;;
23406;SDS011;11876;53.438;18.942;2023-09-19T06:34:52;12.98;;;7.03;;
23406;SDS011;11876;53.438;18.942;2023-09-19T06:40:00;10.82;;;8.40;;
23406;SDS011;11876;53.438;18.942;2023-09-19T06:45:08;9.27;;;7.47;;
23406;SDS011;11876;53.438;18.942;2023-09-19T06:50:15;13.80;;;8.60;;
23406;SDS011;11876;53.438;18.942;2023-09-19T06:55:25;8.85;;;7.30;;
23406;SDS011;11876;53.438;18.942;2023-09-19T07:05:38;10.20;;;8.27;;
23406;SDS011;11876;53.438;18.942;2023-09-19T07:10:44;9.68;;;8.68;;
23406;SDS011;11876;53.438;18.942;2023-09-19T07:15:51;10.02;;;8.90;;
23406;SDS011;11876;53.438;18.942;2023-09-19T07:20:58;10.75;;;8.68;;
23406;SDS011;11876;53.438;18.942;2023-09-19T07:26:06;11.52;;;8.90;;
23406;SDS011;11876;53.438;18.942;2023-09-19T07:31:10;10.68;;;9.48;;
23406;SDS011;11876;53.438;18.942;2023-09-19T07:36:14;10.63;;;9.40;;
23406;SDS011;11876;53.438;18.942;2023-09-19T07:41:18;9.73;;;8.73;;
23406;SDS011;11876;53.438;18.942;2023-09-19T07:46:21;11.75;;;9.00;;
23406;SDS011;11876;53.438;18.942;2023-09-19T07:51:26;10.18;;;8.57;;
23406;SDS011;11876;53.438;18.942;2023-09-19T07:56:32;11.73;;;9.20;;
23406;SDS011;11876;53.438;18.942;2023-09-19T08:01:36;12.10;;;8.38;;
23406;SDS011;11876;53.438;18.942;2023-09-19T08:06:39;11.85;;;9.27;;
23406;SDS011;11876;53.438;18.942;2023-09-19T08:11:43;10.40;;;9.18;;
23406;SDS011;11876;53.438;18.942;2023-09-19T08:16:47;8.45;;;7.65;;
23406;SDS011;11876;53.438;18.942;2023-09-19T08:21:52;9.07;;;8.18;;
23406;SDS011;11876;53.438;18.942;2023-09-19T08:26:56;13.40;;;8.50;;
23406;SDS011;11876;53.438;18.942;2023-09-19T08:32:01;8.57;;;7.68;;
23406;SDS011;11876;53.438;18.942;2023-09-19T08:37:07;9.93;;;7.30;;
23406;SDS011;11876;53.438;18.942;2023-09-19T08:42:12;8.82;;;7.93;;
23406;SDS011;11876;53.438;18.942;2023-09-19T08:47:15;8.20;;;7.47;;
23406;SDS011;11876;53.438;18.942;2023-09-19T08:52:20;8.00;;;7.22;;
23406;SDS011;11876;53.438;18.942;2023-09-19T08:57:25;8.90;;;8.07;;
23406;SDS011;11876;53.438;18.942;2023-09-19T09:02:31;11.80;;;8.13;;
23406;SDS011;11876;53.438;18.942;2023-09-19T09:07:40;8.63;;;7.82;;
23406;SDS011;11876;53.438;18.942;2023-09-19T09:12:43;9.07;;;8.18;;
23406;SDS011;11876;53.438;18.942;2023-09-19T09:17:47;12.00;;;8.30;;
23406;SDS011;11876;53.438;18.942;2023-09-19T09:22:52;11.02;;;8.95;;
23406;SDS011;11876;53.438;18.942;2023-09-19T09:28:02;10.15;;;8.85;;
23406;SDS011;11876;53.438;18.942;2023-09-19T09:33:13;11.98;;;9.13;;
23406;SDS011;11876;53.438;18.942;2023-09-19T09:38:21;11.20;;;10.02;;
23406;SDS011;11876;53.438;18.942;2023-09-19T09:43:30;11.15;;;9.93;;
23406;SDS011;11876;53.438;18.942;2023-09-19T09:48:45;11.38;;;9.95;;
23406;SDS011;11876;53.438;18.942;2023-09-19T09:54:09;11.38;;;10.13;;
23406;SDS011;11876;53.438;18.942;2023-09-19T09:59:14;13.18;;;9.93;;
23406;SDS011;11876;53.438;18.942;2023-09-19T10:04:29;9.55;;;8.65;;
23406;SDS011;11876;53.438;18.942;2023-09-19T10:09:46;9.00;;;8.07;;
23406;SDS011;11876;53.438;18.942;2023-09-19T10:14:50;8.20;;;7.30;;
23406;SDS011;11876;53.438;18.942;2023-09-19T10:19:55;7.30;;;6.57;;
23406;SDS011;11876;53.438;18.942;2023-09-19T10:25:03;7.43;;;6.72;;
23406;SDS011;11876;53.438;18.942;2023-09-19T10:30:09;6.70;;;6.10;;
23406;SDS011;11876;53.438;18.942;2023-09-19T10:35:12;6.13;;;5.53;;
23406;SDS011;11876;53.438;18.942;2023-09-19T10:40:16;5.25;;;4.78;;
23406;SDS011;11876;53.438;18.942;2023-09-19T10:45:19;4.78;;;4.28;;
23406;SDS011;11876;53.438;18.942;2023-09-19T10:50:24;5.45;;;4.75;;
23406;SDS011;11876;53.438;18.942;2023-09-19T10:55:27;6.07;;;5.25;;
23406;SDS011;11876;53.438;18.942;2023-09-19T11:00:40;5.22;;;4.70;;
23406;SDS011;11876;53.438;18.942;2023-09-19T11:06:00;6.32;;;5.00;;
23406;SDS011;11876;53.438;18.942;2023-09-19T11:11:12;4.70;;;4.28;;
23406;SDS011;11876;53.438;18.942;2023-09-19T11:22:51;5.43;;;3.92;;
23406;SDS011;11876;53.438;18.942;2023-09-19T11:33:21;5.25;;;3.50;;
23406;SDS011;11876;53.438;18.942;2023-09-19T11:43:48;4.00;;;2.38;;
23406;SDS011;11876;53.438;18.942;2023-09-19T11:49:04;3.53;;;2.30;;
23406;SDS011;11876;53.438;18.942;2023-09-19T11:54:15;3.70;;;2.40;;
23406;SDS011;11876;53.438;18.942;2023-09-19T11:59:20;4.82;;;2.45;;
23406;SDS011;11876;53.438;18.942;2023-09-19T12:04:36;4.18;;;2.45;;
23406;SDS011;11876;53.438;18.942;2023-09-19T12:14:50;3.88;;;2.38;;
23406;SDS011;11876;53.438;18.942;2023-09-19T12:19:57;4.60;;;2.72;;
23406;SDS011;11876;53.438;18.942;2023-09-19T12:25:10;2.17;;;1.77;;
23406;SDS011;11876;53.438;18.942;2023-09-19T12:30:15;2.88;;;1.95;;
23406;SDS011;11876;53.438;18.942;2023-09-19T12:35:29;6.85;;;2.00;;
23406;SDS011;11876;53.438;18.942;2023-09-19T12:40:37;3.22;;;2.28;;
23406;SDS011;11876;53.438;18.942;2023-09-19T12:45:44;2.67;;;2.08;;
23406;SDS011;11876;53.438;18.942;2023-09-19T12:56:10;5.75;;;2.42;;
23406;SDS011;11876;53.438;18.942;2023-09-19T13:01:16;3.13;;;1.98;;
23406;SDS011;11876;53.438;18.942;2023-09-19T13:06:34;7.20;;;1.90;;
23406;SDS011;11876;53.438;18.942;2023-09-19T13:11:40;1.73;;;1.63;;
23406;SDS011;11876;53.438;18.942;2023-09-19T13:16:59;3.28;;;1.88;;
23406;SDS011;11876;53.438;18.942;2023-09-19T13:27:42;2.28;;;1.65;;
23406;SDS011;11876;53.438;18.942;2023-09-19T13:32:46;2.45;;;1.80;;
23406;SDS011;11876;53.438;18.942;2023-09-19T13:37:49;4.88;;;1.42;;
23406;SDS011;11876;53.438;18.942;2023-09-19T13:42:53;2.75;;;1.80;;
23406;SDS011;11876;53.438;18.942;2023-09-19T13:47:56;2.42;;;1.42;;
23406;SDS011;11876;53.438;18.942;2023-09-19T13:53:03;3.78;;;1.95;;
23406;SDS011;11876;53.438;18.942;2023-09-19T13:58:06;3.28;;;1.70;;
23406;SDS011;11876;53.438;18.942;2023-09-19T14:03:12;8.15;;;1.80;;
23406;SDS011;11876;53.438;18.942;2023-09-19T14:08:15;2.70;;;1.73;;
23406;SDS011;11876;53.438;18.942;2023-09-19T14:13:20;3.03;;;1.67;;
23406;SDS011;11876;53.438;18.942;2023-09-19T14:18:22;3.75;;;1.48;;
23406;SDS011;11876;53.438;18.942;2023-09-19T14:23:29;4.10;;;1.50;;
23406;SDS011;11876;53.438;18.942;2023-09-19T14:28:35;6.73;;;1.77;;
23406;SDS011;11876;53.438;18.942;2023-09-19T14:33:38;3.08;;;1.48;;
23406;SDS011;11876;53.438;18.942;2023-09-19T14:38:42;2.80;;;1.65;;
23406;SDS011;11876;53.438;18.942;2023-09-19T14:43:49;3.75;;;1.75;;
23406;SDS011;11876;53.438;18.942;2023-09-19T14:48:52;3.45;;;2.05;;
23406;SDS011;11876;53.438;18.942;2023-09-19T14:53:55;2.40;;;1.60;;
23406;SDS011;11876;53.438;18.942;2023-09-19T14:58:58;1.95;;;1.73;;
23406;SDS011;11876;53.438;18.942;2023-09-19T15:04:02;3.67;;;2.40;;
23406;SDS011;11876;53.438;18.942;2023-09-19T15:09:13;3.70;;;2.33;;
23406;SDS011;11876;53.438;18.942;2023-09-19T15:14:17;4.50;;;2.47;;
23406;SDS011;11876;53.438;18.942;2023-09-19T15:19:26;3.00;;;1.90;;
23406;SDS011;11876;53.438;18.942;2023-09-19T15:24:31;9.23;;;2.03;;
23406;SDS011;11876;53.438;18.942;2023-09-19T15:29:39;5.40;;;2.47;;
23406;SDS011;11876;53.438;18.942;2023-09-19T15:34:44;4.23;;;2.10;;
23406;SDS011;11876;53.438;18.942;2023-09-19T15:39:48;3.65;;;2.40;;
23406;SDS011;11876;53.438;18.942;2023-09-19T15:44:51;4.72;;;2.53;;
23406;SDS011;11876;53.438;18.942;2023-09-19T15:49:54;4.57;;;1.98;;
23406;SDS011;11876;53.438;18.942;2023-09-19T15:54:57;3.20;;;2.10;;
23406;SDS011;11876;53.438;18.942;2023-09-19T16:00:03;3.00;;;2.10;;
23406;SDS011;11876;53.438;18.942;2023-09-19T16:05:15;4.15;;;2.22;;
23406;SDS011;11876;53.438;18.942;2023-09-19T16:10:19;3.50;;;2.03;;
23406;SDS011;11876;53.438;18.942;2023-09-19T16:15:24;2.45;;;2.25;;
23406;SDS011;11876;53.438;18.942;2023-09-19T16:20:31;5.00;;;3.20;;
23406;SDS011;11876;53.438;18.942;2023-09-19T16:25:35;9.50;;;5.22;;
23406;SDS011;11876;53.438;18.942;2023-09-19T16:30:38;9.82;;;5.35;;
23406;SDS011;11876;53.438;18.942;2023-09-19T16:35:42;6.22;;;3.22;;
23406;SDS011;11876;53.438;18.942;2023-09-19T16:40:54;8.40;;;3.92;;
23406;SDS011;11876;53.438;18.942;2023-09-19T16:46:07;11.80;;;8.52;;
23406;SDS011;11876;53.438;18.942;2023-09-19T16:51:13;9.70;;;6.32;;
23406;SDS011;11876;53.438;18.942;2023-09-19T16:56:16;9.85;;;5.63;;
23406;SDS011;11876;53.438;18.942;2023-09-19T17:01:21;4.38;;;3.10;;
23406;SDS011;11876;53.438;18.942;2023-09-19T17:06:27;7.22;;;6.45;;
23406;SDS011;11876;53.438;18.942;2023-09-19T17:11:32;5.47;;;4.53;;
23406;SDS011;11876;53.438;18.942;2023-09-19T17:16:35;7.18;;;4.50;;
23406;SDS011;11876;53.438;18.942;2023-09-19T17:21:39;5.88;;;4.10;;
23406;SDS011;11876;53.438;18.942;2023-09-19T17:26:42;6.28;;;3.50;;
23406;SDS011;11876;53.438;18.942;2023-09-19T17:31:53;8.43;;;3.97;;
23406;SDS011;11876;53.438;18.942;2023-09-19T17:36:56;9.82;;;5.35;;
23406;SDS011;11876;53.438;18.942;2023-09-19T17:41:59;6.85;;;5.20;;
23406;SDS011;11876;53.438;18.942;2023-09-19T17:47:05;10.98;;;5.07;;
23406;SDS011;11876;53.438;18.942;2023-09-19T17:52:09;8.75;;;7.50;;
23406;SDS011;11876;53.438;18.942;2023-09-19T17:57:18;23.65;;;15.93;;
23406;SDS011;11876;53.438;18.942;2023-09-19T18:02:21;24.77;;;14.20;;
23406;SDS011;11876;53.438;18.942;2023-09-19T18:07:24;19.65;;;10.38;;
23406;SDS011;11876;53.438;18.942;2023-09-19T18:12:28;17.23;;;8.98;;
23406;SDS011;11876;53.438;18.942;2023-09-19T18:17:31;19.45;;;8.95;;
23406;SDS011;11876;53.438;18.942;2023-09-19T18:22:35;18.33;;;9.13;;
23406;SDS011;11876;53.438;18.942;2023-09-19T18:27:38;13.85;;;7.18;;
23406;SDS011;11876;53.438;18.942;2023-09-19T18:32:43;13.45;;;7.53;;
23406;SDS011;11876;53.438;18.942;2023-09-19T18:37:50;13.98;;;6.60;;
23406;SDS011;11876;53.438;18.942;2023-09-19T18:43:00;9.95;;;5.40;;
23406;SDS011;11876;53.438;18.942;2023-09-19T18:48:04;10.25;;;6.03;;
23406;SDS011;11876;53.438;18.942;2023-09-19T18:53:08;8.85;;;5.28;;
23406;SDS011;11876;53.438;18.942;2023-09-19T18:58:11;8.85;;;5.57;;
23406;SDS011;11876;53.438;18.942;2023-09-19T19:03:15;7.25;;;5.05;;
23406;SDS011;11876;53.438;18.942;2023-09-19T19:08:18;8.60;;;4.35;;
23406;SDS011;11876;53.438;18.942;2023-09-19T19:13:21;7.07;;;4.25;;
23406;SDS011;11876;53.438;18.942;2023-09-19T19:18:24;8.77;;;4.50;;
23406;SDS011;11876;53.438;18.942;2023-09-19T19:23:32;6.75;;;4.50;;
23406;SDS011;11876;53.438;18.942;2023-09-19T19:28:39;5.15;;;4.40;;
23406;SDS011;11876;53.438;18.942;2023-09-19T19:33:44;5.75;;;4.05;;
23406;SDS011;11876;53.438;18.942;2023-09-19T19:38:47;4.70;;;3.88;;
23406;SDS011;11876;53.438;18.942;2023-09-19T19:43:51;8.07;;;4.40;;
23406;SDS011;11876;53.438;18.942;2023-09-19T19:48:54;12.40;;;6.40;;
23406;SDS011;11876;53.438;18.942;2023-09-19T19:53:57;10.85;;;6.75;;
23406;SDS011;11876;53.438;18.942;2023-09-19T19:58:59;8.95;;;5.78;;
23406;SDS011;11876;53.438;18.942;2023-09-19T20:04:03;19.85;;;8.38;;
23406;SDS011;11876;53.438;18.942;2023-09-19T20:09:08;8.32;;;4.60;;
23406;SDS011;11876;53.438;18.942;2023-09-19T20:14:11;9.98;;;5.40;;
23406;SDS011;11876;53.438;18.942;2023-09-19T20:19:14;7.60;;;5.28;;
23406;SDS011;11876;53.438;18.942;2023-09-19T20:24:16;7.35;;;5.57;;
23406;SDS011;11876;53.438;18.942;2023-09-19T20:29:25;7.07;;;5.18;;
23406;SDS011;11876;53.438;18.942;2023-09-19T20:34:30;6.47;;;4.75;;
23406;SDS011;11876;53.438;18.942;2023-09-19T20:39:33;7.35;;;5.30;;
23406;SDS011;11876;53.438;18.942;2023-09-19T20:44:36;7.20;;;4.40;;
23406;SDS011;11876;53.438;18.942;2023-09-19T20:49:38;7.35;;;4.45;;
23406;SDS011;11876;53.438;18.942;2023-09-19T20:54:41;12.20;;;5.25;;
23406;SDS011;11876;53.438;18.942;2023-09-19T20:59:44;9.30;;;4.47;;
23406;SDS011;11876;53.438;18.942;2023-09-19T21:04:47;8.38;;;4.90;;
23406;SDS011;11876;53.438;18.942;2023-09-19T21:09:57;6.80;;;5.10;;
23406;SDS011;11876;53.438;18.942;2023-09-19T21:15:01;8.45;;;4.78;;
23406;SDS011;11876;53.438;18.942;2023-09-19T21:20:06;8.27;;;5.97;;
23406;SDS011;11876;53.438;18.942;2023-09-19T21:25:13;7.30;;;5.05;;
23406;SDS011;11876;53.438;18.942;2023-09-19T21:30:16;8.52;;;5.00;;
23406;SDS011;11876;53.438;18.942;2023-09-19T21:35:19;7.22;;;5.30;;
23406;SDS011;11876;53.438;18.942;2023-09-19T21:40:23;9.73;;;5.18;;
23406;SDS011;11876;53.438;18.942;2023-09-19T21:45:27;8.80;;;5.35;;
23406;SDS011;11876;53.438;18.942;2023-09-19T21:50:30;7.00;;;4.35;;
23406;SDS011;11876;53.438;18.942;2023-09-19T21:55:35;6.68;;;4.40;;
23406;SDS011;11876;53.438;18.942;2023-09-19T22:00:46;6.45;;;4.75;;
23406;SDS011;11876;53.438;18.942;2023-09-19T22:05:49;6.20;;;4.43;;
23406;SDS011;11876;53.438;18.942;2023-09-19T22:10:53;8.32;;;5.28;;
23406;SDS011;11876;53.438;18.942;2023-09-19T22:15:57;5.80;;;4.82;;
23406;SDS011;11876;53.438;18.942;2023-09-19T22:21:00;6.53;;;5.18;;
23406;SDS011;11876;53.438;18.942;2023-09-19T22:26:15;8.00;;;5.18;;
23406;SDS011;11876;53.438;18.942;2023-09-19T22:31:25;7.00;;;4.78;;
23406;SDS011;11876;53.438;18.942;2023-09-19T22:36:42;4.60;;;3.87;;
23406;SDS011;11876;53.438;18.942;2023-09-19T22:41:47;9.40;;;5.05;;
23406;SDS011;11876;53.438;18.942;2023-09-19T22:47:01;8.50;;;6.00;;
23406;SDS011;11876;53.438;18.942;2023-09-19T22:52:06;6.60;;;5.28;;
23406;SDS011;11876;53.438;18.942;2023-09-19T22:57:15;7.75;;;5.40;;
23406;SDS011;11876;53.438;18.942;2023-09-19T23:02:27;7.68;;;5.30;;
23406;SDS011;11876;53.438;18.942;2023-09-19T23:07:37;8.93;;;5.82;;
23406;SDS011;11876;53.438;18.942;2023-09-19T23:12:39;9.40;;;5.25;;
23406;SDS011;11876;53.438;18.942;2023-09-19T23:17:44;8.95;;;5.85;;
23406;SDS011;11876;53.438;18.942;2023-09-19T23:22:48;9.10;;;5.40;;
23406;SDS011;11876;53.438;18.942;2023-09-19T23:27:55;7.53;;;5.55;;
23406;SDS011;11876;53.438;18.942;2023-09-19T23:33:01;7.85;;;5.57;;
23406;SDS011;11876;53.438;18.942;2023-09-19T23:38:04;6.50;;;5.05;;
23406;SDS011;11876;53.438;18.942;2023-09-19T23:43:09;9.60;;;5.88;;
23406;SDS011;11876;53.438;18.942;2023-09-19T23:48:13;8.50;;;5.32;;
23406;SDS011;11876;53.438;18.942;2023-09-19T23:53:19;9.23;;;5.68;;
23406;SDS011;11876;53.438;18.942;2023-09-19T23:58:22;7.72;;;5.68;;
